sensor_id;sensor_type;location;lat;lon;timestamp;P1;durP1;ratioP1;P2;durP2;ratioP2
21432;SDS011;18592;49.708;10.900;2022-08-21T00:00:18;4.28;;;3.50;;
21432;SDS011;18592;49.708;10.900;2022-08-21T00:02:22;3.53;;;3.22;;
21432;SDS011;18592;49.708;10.900;2022-08-21T00:04:26;4.20;;;3.35;;
21432;SDS011;18592;49.708;10.900;2022-08-21T00:06:30;4.72;;;3.15;;
21432;SDS011;18592;49.708;10.900;2022-08-21T00:08:32;2.90;;;2.70;;
21432;SDS011;18592;49.708;10.900;2022-08-21T00:10:34;3.42;;;3.10;;
21432;SDS011;18592;49.708;10.900;2022-08-21T00:12:36;3.35;;;3.05;;
21432;SDS011;18592;49.708;10.900;2022-08-21T00:14:38;3.42;;;3.13;;
21432;SDS011;18592;49.708;10.900;2022-08-21T00:16:40;3.42;;;3.13;;
21432;SDS011;18592;49.708;10.900;2022-08-21T00:18:42;3.92;;;3.53;;
21432;SDS011;18592;49.708;10.900;2022-08-21T00:20:43;3.53;;;3.22;;
21432;SDS011;18592;49.708;10.900;2022-08-21T00:22:47;3.90;;;3.55;;
21432;SDS011;18592;49.708;10.900;2022-08-21T00:24:48;4.63;;;3.38;;
21432;SDS011;18592;49.708;10.900;2022-08-21T00:26:51;2.90;;;2.70;;
21432;SDS011;18592;49.708;10.900;2022-08-21T00:28:53;2.60;;;2.40;;
21432;SDS011;18592;49.708;10.900;2022-08-21T00:30:55;2.50;;;2.30;;
21432;SDS011;18592;49.708;10.900;2022-08-21T00:32:58;2.80;;;2.60;;
21432;SDS011;18592;49.708;10.900;2022-08-21T00:35:01;2.38;;;2.17;;
21432;SDS011;18592;49.708;10.900;2022-08-21T00:37:02;2.50;;;2.30;;
21432;SDS011;18592;49.708;10.900;2022-08-21T00:39:05;2.30;;;2.10;;
21432;SDS011;18592;49.708;10.900;2022-08-21T00:41:09;2.45;;;2.25;;
21432;SDS011;18592;49.708;10.900;2022-08-21T00:43:32;2.80;;;2.60;;
21432;SDS011;18592;49.708;10.900;2022-08-21T00:45:36;2.65;;;2.45;;
21432;SDS011;18592;49.708;10.900;2022-08-21T00:47:38;2.47;;;2.28;;
21432;SDS011;18592;49.708;10.900;2022-08-21T00:49:41;2.42;;;2.22;;
21432;SDS011;18592;49.708;10.900;2022-08-21T00:51:47;2.60;;;2.40;;
21432;SDS011;18592;49.708;10.900;2022-08-21T00:53:54;2.33;;;2.13;;
21432;SDS011;18592;49.708;10.900;2022-08-21T00:55:59;2.42;;;2.22;;
21432;SDS011;18592;49.708;10.900;2022-08-21T00:58:05;3.08;;;2.78;;
21432;SDS011;18592;49.708;10.900;2022-08-21T01:00:12;2.42;;;2.22;;
21432;SDS011;18592;49.708;10.900;2022-08-21T01:02:17;3.08;;;2.47;;
21432;SDS011;18592;49.708;10.900;2022-08-21T01:04:20;2.67;;;2.47;;
21432;SDS011;18592;49.708;10.900;2022-08-21T01:06:23;2.78;;;2.58;;
21432;SDS011;18592;49.708;10.900;2022-08-21T01:08:25;4.25;;;2.88;;
21432;SDS011;18592;49.708;10.900;2022-08-21T01:10:28;4.10;;;3.70;;
21432;SDS011;18592;49.708;10.900;2022-08-21T01:12:31;4.60;;;3.20;;
21432;SDS011;18592;49.708;10.900;2022-08-21T01:14:36;5.32;;;4.05;;
21432;SDS011;18592;49.708;10.900;2022-08-21T01:16:41;4.63;;;4.15;;
21432;SDS011;18592;49.708;10.900;2022-08-21T01:18:45;3.92;;;3.58;;
21432;SDS011;18592;49.708;10.900;2022-08-21T01:21:08;4.90;;;4.40;;
21432;SDS011;18592;49.708;10.900;2022-08-21T01:23:13;5.35;;;4.72;;
21432;SDS011;18592;49.708;10.900;2022-08-21T01:25:16;4.75;;;4.30;;
21432;SDS011;18592;49.708;10.900;2022-08-21T01:27:18;5.65;;;4.50;;
21432;SDS011;18592;49.708;10.900;2022-08-21T01:29:41;6.45;;;5.03;;
21432;SDS011;18592;49.708;10.900;2022-08-21T01:31:48;7.00;;;5.18;;
21432;SDS011;18592;49.708;10.900;2022-08-21T01:33:50;6.50;;;4.57;;
21432;SDS011;18592;49.708;10.900;2022-08-21T01:35:52;6.00;;;4.53;;
21432;SDS011;18592;49.708;10.900;2022-08-21T01:37:54;6.15;;;4.70;;
21432;SDS011;18592;49.708;10.900;2022-08-21T01:39:55;5.95;;;4.85;;
21432;SDS011;18592;49.708;10.900;2022-08-21T01:41:57;5.78;;;4.25;;
21432;SDS011;18592;49.708;10.900;2022-08-21T01:43:59;6.13;;;4.68;;
21432;SDS011;18592;49.708;10.900;2022-08-21T01:46:02;5.72;;;4.78;;
21432;SDS011;18592;49.708;10.900;2022-08-21T01:48:04;6.68;;;4.32;;
21432;SDS011;18592;49.708;10.900;2022-08-21T01:50:07;5.80;;;4.72;;
21432;SDS011;18592;49.708;10.900;2022-08-21T01:52:12;6.65;;;4.82;;
21432;SDS011;18592;49.708;10.900;2022-08-21T01:54:14;4.63;;;3.97;;
21432;SDS011;18592;49.708;10.900;2022-08-21T01:56:16;5.10;;;4.05;;
21432;SDS011;18592;49.708;10.900;2022-08-21T01:58:18;3.33;;;3.03;;
21432;SDS011;18592;49.708;10.900;2022-08-21T02:00:20;4.32;;;3.38;;
21432;SDS011;18592;49.708;10.900;2022-08-21T02:02:26;3.67;;;3.38;;
21432;SDS011;18592;49.708;10.900;2022-08-21T02:04:27;4.10;;;3.70;;
21432;SDS011;18592;49.708;10.900;2022-08-21T02:06:29;4.13;;;3.58;;
21432;SDS011;18592;49.708;10.900;2022-08-21T02:08:31;3.80;;;3.40;;
21432;SDS011;18592;49.708;10.900;2022-08-21T02:10:33;3.42;;;3.08;;
21432;SDS011;18592;49.708;10.900;2022-08-21T02:12:35;4.50;;;3.85;;
21432;SDS011;18592;49.708;10.900;2022-08-21T02:14:37;3.70;;;3.40;;
21432;SDS011;18592;49.708;10.900;2022-08-21T02:16:38;4.63;;;4.22;;
21432;SDS011;18592;49.708;10.900;2022-08-21T02:18:41;3.72;;;3.42;;
21432;SDS011;18592;49.708;10.900;2022-08-21T02:20:45;4.22;;;3.83;;
21432;SDS011;18592;49.708;10.900;2022-08-21T02:22:55;4.70;;;3.92;;
21432;SDS011;18592;49.708;10.900;2022-08-21T02:24:57;5.07;;;3.95;;
21432;SDS011;18592;49.708;10.900;2022-08-21T02:26:59;5.40;;;4.57;;
21432;SDS011;18592;49.708;10.900;2022-08-21T02:29:00;4.07;;;3.67;;
21432;SDS011;18592;49.708;10.900;2022-08-21T02:31:02;4.78;;;4.07;;
21432;SDS011;18592;49.708;10.900;2022-08-21T02:33:06;4.28;;;3.88;;
21432;SDS011;18592;49.708;10.900;2022-08-21T02:35:09;4.93;;;4.00;;
21432;SDS011;18592;49.708;10.900;2022-08-21T02:37:11;4.13;;;3.72;;
21432;SDS011;18592;49.708;10.900;2022-08-21T02:39:13;4.40;;;4.00;;
21432;SDS011;18592;49.708;10.900;2022-08-21T02:41:16;4.90;;;4.38;;
21432;SDS011;18592;49.708;10.900;2022-08-21T02:43:21;4.63;;;4.13;;
21432;SDS011;18592;49.708;10.900;2022-08-21T02:45:25;4.78;;;3.75;;
21432;SDS011;18592;49.708;10.900;2022-08-21T02:47:30;4.65;;;4.15;;
21432;SDS011;18592;49.708;10.900;2022-08-21T02:49:31;4.65;;;4.25;;
21432;SDS011;18592;49.708;10.900;2022-08-21T02:51:33;4.55;;;4.15;;
21432;SDS011;18592;49.708;10.900;2022-08-21T02:53:35;4.20;;;3.80;;
21432;SDS011;18592;49.708;10.900;2022-08-21T02:55:37;4.35;;;3.95;;
21432;SDS011;18592;49.708;10.900;2022-08-21T02:57:39;4.53;;;4.13;;
21432;SDS011;18592;49.708;10.900;2022-08-21T02:59:44;3.65;;;3.35;;
21432;SDS011;18592;49.708;10.900;2022-08-21T03:01:45;4.15;;;3.85;;
21432;SDS011;18592;49.708;10.900;2022-08-21T03:03:47;4.30;;;3.90;;
21432;SDS011;18592;49.708;10.900;2022-08-21T03:05:52;3.97;;;3.67;;
21432;SDS011;18592;49.708;10.900;2022-08-21T03:07:54;3.83;;;3.53;;
21432;SDS011;18592;49.708;10.900;2022-08-21T03:09:56;4.10;;;3.70;;
21432;SDS011;18592;49.708;10.900;2022-08-21T03:11:57;4.40;;;4.00;;
21432;SDS011;18592;49.708;10.900;2022-08-21T03:13:59;4.05;;;3.72;;
21432;SDS011;18592;49.708;10.900;2022-08-21T03:16:01;4.50;;;4.10;;
21432;SDS011;18592;49.708;10.900;2022-08-21T03:18:06;4.70;;;4.30;;
21432;SDS011;18592;49.708;10.900;2022-08-21T03:20:08;4.55;;;4.15;;
21432;SDS011;18592;49.708;10.900;2022-08-21T03:22:10;5.43;;;4.90;;
21432;SDS011;18592;49.708;10.900;2022-08-21T03:24:12;5.18;;;4.78;;
21432;SDS011;18592;49.708;10.900;2022-08-21T03:26:14;4.07;;;3.78;;
21432;SDS011;18592;49.708;10.900;2022-08-21T03:28:18;4.05;;;3.75;;
21432;SDS011;18592;49.708;10.900;2022-08-21T03:30:22;4.40;;;4.00;;
21432;SDS011;18592;49.708;10.900;2022-08-21T03:32:24;3.88;;;3.40;;
21432;SDS011;18592;49.708;10.900;2022-08-21T03:34:25;3.75;;;3.45;;
21432;SDS011;18592;49.708;10.900;2022-08-21T03:36:27;3.70;;;3.40;;
21432;SDS011;18592;49.708;10.900;2022-08-21T03:38:29;3.40;;;3.10;;
21432;SDS011;18592;49.708;10.900;2022-08-21T03:40:32;3.30;;;3.05;;
21432;SDS011;18592;49.708;10.900;2022-08-21T03:42:35;3.28;;;2.97;;
21432;SDS011;18592;49.708;10.900;2022-08-21T03:44:37;3.10;;;2.80;;
21432;SDS011;18592;49.708;10.900;2022-08-21T03:46:38;3.53;;;3.22;;
21432;SDS011;18592;49.708;10.900;2022-08-21T03:48:41;3.10;;;2.80;;
21432;SDS011;18592;49.708;10.900;2022-08-21T03:50:43;3.20;;;2.90;;
21432;SDS011;18592;49.708;10.900;2022-08-21T03:52:46;3.42;;;3.13;;
21432;SDS011;18592;49.708;10.900;2022-08-21T03:54:47;3.40;;;3.10;;
21432;SDS011;18592;49.708;10.900;2022-08-21T03:56:49;2.70;;;2.38;;
21432;SDS011;18592;49.708;10.900;2022-08-21T03:58:51;3.22;;;2.95;;
21432;SDS011;18592;49.708;10.900;2022-08-21T04:00:54;3.08;;;2.88;;
21432;SDS011;18592;49.708;10.900;2022-08-21T04:02:58;3.20;;;2.90;;
21432;SDS011;18592;49.708;10.900;2022-08-21T04:05:00;3.47;;;3.17;;
21432;SDS011;18592;49.708;10.900;2022-08-21T04:07:02;3.10;;;2.90;;
21432;SDS011;18592;49.708;10.900;2022-08-21T04:09:04;3.08;;;2.88;;
21432;SDS011;18592;49.708;10.900;2022-08-21T04:11:06;3.50;;;3.20;;
21432;SDS011;18592;49.708;10.900;2022-08-21T04:13:08;3.22;;;2.92;;
21432;SDS011;18592;49.708;10.900;2022-08-21T04:15:10;2.42;;;2.22;;
21432;SDS011;18592;49.708;10.900;2022-08-21T04:17:12;2.90;;;2.70;;
21432;SDS011;18592;49.708;10.900;2022-08-21T04:19:13;2.65;;;2.45;;
21432;SDS011;18592;49.708;10.900;2022-08-21T04:21:15;2.97;;;2.78;;
21432;SDS011;18592;49.708;10.900;2022-08-21T04:23:17;2.80;;;2.60;;
21432;SDS011;18592;49.708;10.900;2022-08-21T04:25:24;2.60;;;2.40;;
21432;SDS011;18592;49.708;10.900;2022-08-21T04:27:28;2.90;;;2.70;;
21432;SDS011;18592;49.708;10.900;2022-08-21T04:29:30;3.33;;;3.03;;
21432;SDS011;18592;49.708;10.900;2022-08-21T04:31:32;2.80;;;2.60;;
21432;SDS011;18592;49.708;10.900;2022-08-21T04:33:34;2.80;;;2.60;;
21432;SDS011;18592;49.708;10.900;2022-08-21T04:35:36;3.25;;;2.95;;
21432;SDS011;18592;49.708;10.900;2022-08-21T04:37:38;3.15;;;2.95;;
21432;SDS011;18592;49.708;10.900;2022-08-21T04:39:42;2.50;;;2.30;;
21432;SDS011;18592;49.708;10.900;2022-08-21T04:41:44;2.60;;;2.40;;
21432;SDS011;18592;49.708;10.900;2022-08-21T04:43:45;2.92;;;2.47;;
21432;SDS011;18592;49.708;10.900;2022-08-21T04:45:47;2.65;;;2.45;;
21432;SDS011;18592;49.708;10.900;2022-08-21T04:47:51;2.65;;;2.45;;
21432;SDS011;18592;49.708;10.900;2022-08-21T04:49:54;2.55;;;2.35;;
21432;SDS011;18592;49.708;10.900;2022-08-21T04:51:55;2.70;;;2.50;;
21432;SDS011;18592;49.708;10.900;2022-08-21T04:54:07;2.83;;;2.63;;
21432;SDS011;18592;49.708;10.900;2022-08-21T04:56:18;3.05;;;2.67;;
21432;SDS011;18592;49.708;10.900;2022-08-21T04:58:27;2.60;;;2.40;;
21432;SDS011;18592;49.708;10.900;2022-08-21T05:00:30;2.80;;;2.60;;
21432;SDS011;18592;49.708;10.900;2022-08-21T05:02:31;2.88;;;2.58;;
21432;SDS011;18592;49.708;10.900;2022-08-21T05:04:34;2.35;;;2.15;;
21432;SDS011;18592;49.708;10.900;2022-08-21T05:06:41;2.38;;;2.17;;
21432;SDS011;18592;49.708;10.900;2022-08-21T05:08:45;2.15;;;1.95;;
21432;SDS011;18592;49.708;10.900;2022-08-21T05:10:49;2.88;;;2.53;;
21432;SDS011;18592;49.708;10.900;2022-08-21T05:12:51;2.50;;;2.30;;
21432;SDS011;18592;49.708;10.900;2022-08-21T05:14:54;2.75;;;2.55;;
21432;SDS011;18592;49.708;10.900;2022-08-21T05:16:55;2.10;;;2.00;;
21432;SDS011;18592;49.708;10.900;2022-08-21T05:18:57;2.10;;;1.95;;
21432;SDS011;18592;49.708;10.900;2022-08-21T05:20:59;2.50;;;2.30;;
21432;SDS011;18592;49.708;10.900;2022-08-21T05:23:01;2.50;;;2.30;;
21432;SDS011;18592;49.708;10.900;2022-08-21T05:25:10;3.50;;;2.80;;
21432;SDS011;18592;49.708;10.900;2022-08-21T05:27:13;2.67;;;2.47;;
21432;SDS011;18592;49.708;10.900;2022-08-21T05:29:18;2.40;;;2.20;;
21432;SDS011;18592;49.708;10.900;2022-08-21T05:31:20;2.28;;;2.08;;
21432;SDS011;18592;49.708;10.900;2022-08-21T05:33:21;2.63;;;2.28;;
21432;SDS011;18592;49.708;10.900;2022-08-21T05:35:24;2.25;;;2.05;;
21432;SDS011;18592;49.708;10.900;2022-08-21T05:37:26;2.58;;;2.38;;
21432;SDS011;18592;49.708;10.900;2022-08-21T05:39:27;2.88;;;2.67;;
21432;SDS011;18592;49.708;10.900;2022-08-21T05:41:49;2.47;;;2.28;;
21432;SDS011;18592;49.708;10.900;2022-08-21T05:43:51;2.60;;;2.22;;
21432;SDS011;18592;49.708;10.900;2022-08-21T05:45:53;2.63;;;2.42;;
21432;SDS011;18592;49.708;10.900;2022-08-21T05:47:54;2.35;;;2.15;;
21432;SDS011;18592;49.708;10.900;2022-08-21T05:49:56;2.30;;;2.10;;
21432;SDS011;18592;49.708;10.900;2022-08-21T05:51:58;2.13;;;1.92;;
21432;SDS011;18592;49.708;10.900;2022-08-21T05:54:00;2.17;;;1.98;;
21432;SDS011;18592;49.708;10.900;2022-08-21T05:56:02;1.90;;;1.80;;
21432;SDS011;18592;49.708;10.900;2022-08-21T05:58:05;2.50;;;2.30;;
21432;SDS011;18592;49.708;10.900;2022-08-21T06:00:07;2.72;;;2.53;;
21432;SDS011;18592;49.708;10.900;2022-08-21T06:02:13;2.53;;;2.33;;
21432;SDS011;18592;49.708;10.900;2022-08-21T06:04:15;2.95;;;2.72;;
21432;SDS011;18592;49.708;10.900;2022-08-21T06:06:17;2.65;;;2.45;;
21432;SDS011;18592;49.708;10.900;2022-08-21T06:08:19;2.97;;;2.78;;
21432;SDS011;18592;49.708;10.900;2022-08-21T06:10:21;3.30;;;3.00;;
21432;SDS011;18592;49.708;10.900;2022-08-21T06:12:23;2.80;;;2.60;;
21432;SDS011;18592;49.708;10.900;2022-08-21T06:14:25;3.20;;;2.90;;
21432;SDS011;18592;49.708;10.900;2022-08-21T06:16:28;3.40;;;3.10;;
21432;SDS011;18592;49.708;10.900;2022-08-21T06:18:30;3.35;;;2.90;;
21432;SDS011;18592;49.708;10.900;2022-08-21T06:20:32;4.05;;;3.45;;
21432;SDS011;18592;49.708;10.900;2022-08-21T06:22:34;3.15;;;2.85;;
21432;SDS011;18592;49.708;10.900;2022-08-21T06:24:35;2.47;;;2.28;;
21432;SDS011;18592;49.708;10.900;2022-08-21T06:26:37;3.42;;;3.13;;
21432;SDS011;18592;49.708;10.900;2022-08-21T06:28:40;3.10;;;2.80;;
21432;SDS011;18592;49.708;10.900;2022-08-21T06:30:42;3.13;;;2.83;;
21432;SDS011;18592;49.708;10.900;2022-08-21T06:32:44;3.97;;;3.00;;
21432;SDS011;18592;49.708;10.900;2022-08-21T06:34:45;3.40;;;3.00;;
21432;SDS011;18592;49.708;10.900;2022-08-21T06:36:47;3.22;;;2.90;;
21432;SDS011;18592;49.708;10.900;2022-08-21T06:38:48;3.58;;;3.28;;
21432;SDS011;18592;49.708;10.900;2022-08-21T06:40:52;3.40;;;3.10;;
21432;SDS011;18592;49.708;10.900;2022-08-21T06:42:53;2.90;;;2.70;;
21432;SDS011;18592;49.708;10.900;2022-08-21T06:44:56;3.28;;;2.97;;
21432;SDS011;18592;49.708;10.900;2022-08-21T06:46:58;3.20;;;2.90;;
21432;SDS011;18592;49.708;10.900;2022-08-21T06:49:00;3.00;;;2.70;;
21432;SDS011;18592;49.708;10.900;2022-08-21T06:51:02;3.35;;;2.88;;
21432;SDS011;18592;49.708;10.900;2022-08-21T06:53:10;4.18;;;3.67;;
21432;SDS011;18592;49.708;10.900;2022-08-21T06:55:13;3.80;;;3.40;;
21432;SDS011;18592;49.708;10.900;2022-08-21T06:57:23;5.72;;;3.47;;
21432;SDS011;18592;49.708;10.900;2022-08-21T06:59:26;4.18;;;3.78;;
21432;SDS011;18592;49.708;10.900;2022-08-21T07:01:28;4.57;;;4.13;;
21432;SDS011;18592;49.708;10.900;2022-08-21T07:03:31;4.00;;;3.45;;
21432;SDS011;18592;49.708;10.900;2022-08-21T07:05:38;5.07;;;3.75;;
21432;SDS011;18592;49.708;10.900;2022-08-21T07:07:40;3.60;;;3.30;;
21432;SDS011;18592;49.708;10.900;2022-08-21T07:09:42;4.32;;;3.92;;
21432;SDS011;18592;49.708;10.900;2022-08-21T07:11:44;3.97;;;3.20;;
21432;SDS011;18592;49.708;10.900;2022-08-21T07:13:50;4.43;;;3.80;;
21432;SDS011;18592;49.708;10.900;2022-08-21T07:15:55;3.65;;;3.35;;
21432;SDS011;18592;49.708;10.900;2022-08-21T07:18:04;4.35;;;3.58;;
21432;SDS011;18592;49.708;10.900;2022-08-21T07:20:06;4.03;;;3.38;;
21432;SDS011;18592;49.708;10.900;2022-08-21T07:22:08;3.75;;;3.40;;
21432;SDS011;18592;49.708;10.900;2022-08-21T07:24:10;3.35;;;3.05;;
21432;SDS011;18592;49.708;10.900;2022-08-21T07:26:15;4.13;;;3.15;;
21432;SDS011;18592;49.708;10.900;2022-08-21T07:28:19;3.30;;;3.00;;
21432;SDS011;18592;49.708;10.900;2022-08-21T07:30:21;4.05;;;3.65;;
21432;SDS011;18592;49.708;10.900;2022-08-21T07:32:24;3.55;;;3.25;;
21432;SDS011;18592;49.708;10.900;2022-08-21T07:34:25;4.05;;;3.60;;
21432;SDS011;18592;49.708;10.900;2022-08-21T07:36:27;4.25;;;3.85;;
21432;SDS011;18592;49.708;10.900;2022-08-21T07:38:29;4.03;;;3.50;;
21432;SDS011;18592;49.708;10.900;2022-08-21T07:40:31;3.33;;;3.00;;
21432;SDS011;18592;49.708;10.900;2022-08-21T07:42:32;4.28;;;3.88;;
21432;SDS011;18592;49.708;10.900;2022-08-21T07:44:34;3.63;;;3.33;;
21432;SDS011;18592;49.708;10.900;2022-08-21T07:46:36;3.92;;;3.53;;
21432;SDS011;18592;49.708;10.900;2022-08-21T07:48:37;3.30;;;3.00;;
21432;SDS011;18592;49.708;10.900;2022-08-21T07:50:39;3.60;;;3.30;;
21432;SDS011;18592;49.708;10.900;2022-08-21T07:52:42;3.33;;;3.03;;
21432;SDS011;18592;49.708;10.900;2022-08-21T07:54:44;4.07;;;3.60;;
21432;SDS011;18592;49.708;10.900;2022-08-21T07:56:46;4.00;;;3.30;;
21432;SDS011;18592;49.708;10.900;2022-08-21T07:58:48;3.70;;;3.40;;
21432;SDS011;18592;49.708;10.900;2022-08-21T08:00:50;3.85;;;3.10;;
21432;SDS011;18592;49.708;10.900;2022-08-21T08:02:52;4.47;;;3.85;;
21432;SDS011;18592;49.708;10.900;2022-08-21T08:04:58;5.30;;;3.63;;
21432;SDS011;18592;49.708;10.900;2022-08-21T08:07:04;3.42;;;3.13;;
21432;SDS011;18592;49.708;10.900;2022-08-21T08:09:06;3.40;;;3.10;;
21432;SDS011;18592;49.708;10.900;2022-08-21T08:11:09;3.45;;;3.15;;
21432;SDS011;18592;49.708;10.900;2022-08-21T08:13:12;3.90;;;3.30;;
21432;SDS011;18592;49.708;10.900;2022-08-21T08:15:16;3.38;;;3.08;;
21432;SDS011;18592;49.708;10.900;2022-08-21T08:17:21;3.60;;;3.30;;
21432;SDS011;18592;49.708;10.900;2022-08-21T08:19:24;3.38;;;3.08;;
21432;SDS011;18592;49.708;10.900;2022-08-21T08:21:26;3.67;;;3.38;;
21432;SDS011;18592;49.708;10.900;2022-08-21T08:23:28;3.50;;;3.20;;
21432;SDS011;18592;49.708;10.900;2022-08-21T08:25:31;3.63;;;3.33;;
21432;SDS011;18592;49.708;10.900;2022-08-21T08:27:37;4.13;;;3.72;;
21432;SDS011;18592;49.708;10.900;2022-08-21T08:29:39;3.35;;;3.05;;
21432;SDS011;18592;49.708;10.900;2022-08-21T08:31:41;4.20;;;3.80;;
21432;SDS011;18592;49.708;10.900;2022-08-21T08:33:42;4.47;;;4.07;;
21432;SDS011;18592;49.708;10.900;2022-08-21T08:35:45;3.70;;;3.40;;
21432;SDS011;18592;49.708;10.900;2022-08-21T08:37:49;4.18;;;3.85;;
21432;SDS011;18592;49.708;10.900;2022-08-21T08:39:53;4.95;;;4.00;;
21432;SDS011;18592;49.708;10.900;2022-08-21T08:44:28;3.95;;;3.65;;
21432;SDS011;18592;49.708;10.900;2022-08-21T08:46:46;4.63;;;3.47;;
21432;SDS011;18592;49.708;10.900;2022-08-21T08:48:57;3.60;;;3.30;;
21432;SDS011;18592;49.708;10.900;2022-08-21T08:51:04;5.28;;;4.78;;
21432;SDS011;18592;49.708;10.900;2022-08-21T08:53:16;3.63;;;3.28;;
21432;SDS011;18592;49.708;10.900;2022-08-21T08:55:25;4.10;;;3.70;;
21432;SDS011;18592;49.708;10.900;2022-08-21T08:57:30;4.70;;;4.30;;
21432;SDS011;18592;49.708;10.900;2022-08-21T08:59:38;5.22;;;4.72;;
21432;SDS011;18592;49.708;10.900;2022-08-21T09:01:44;4.30;;;3.90;;
21432;SDS011;18592;49.708;10.900;2022-08-21T09:03:49;4.40;;;4.00;;
21432;SDS011;18592;49.708;10.900;2022-08-21T09:06:07;4.30;;;3.95;;
21432;SDS011;18592;49.708;10.900;2022-08-21T09:08:46;4.60;;;4.20;;
21432;SDS011;18592;49.708;10.900;2022-08-21T09:11:04;4.43;;;4.03;;
21432;SDS011;18592;49.708;10.900;2022-08-21T09:15:29;4.25;;;3.80;;
21432;SDS011;18592;49.708;10.900;2022-08-21T09:17:58;4.05;;;3.72;;
21432;SDS011;18592;49.708;10.900;2022-08-21T09:20:17;4.72;;;4.30;;
21432;SDS011;18592;49.708;10.900;2022-08-21T09:24:58;4.85;;;4.45;;
21432;SDS011;18592;49.708;10.900;2022-08-21T09:27:11;4.88;;;4.18;;
21432;SDS011;18592;49.708;10.900;2022-08-21T09:29:14;4.32;;;3.92;;
21432;SDS011;18592;49.708;10.900;2022-08-21T09:31:26;4.47;;;4.07;;
21432;SDS011;18592;49.708;10.900;2022-08-21T09:33:31;4.38;;;3.97;;
21432;SDS011;18592;49.708;10.900;2022-08-21T09:35:32;4.78;;;3.97;;
21432;SDS011;18592;49.708;10.900;2022-08-21T09:37:45;4.53;;;4.13;;
21432;SDS011;18592;49.708;10.900;2022-08-21T09:39:53;4.35;;;3.95;;
21432;SDS011;18592;49.708;10.900;2022-08-21T09:41:59;4.72;;;4.32;;
21432;SDS011;18592;49.708;10.900;2022-08-21T09:44:06;5.45;;;4.95;;
21432;SDS011;18592;49.708;10.900;2022-08-21T09:46:11;4.75;;;4.32;;
21432;SDS011;18592;49.708;10.900;2022-08-21T09:48:23;5.47;;;4.80;;
21432;SDS011;18592;49.708;10.900;2022-08-21T09:50:27;4.80;;;4.38;;
21432;SDS011;18592;49.708;10.900;2022-08-21T09:52:30;4.63;;;4.22;;
21432;SDS011;18592;49.708;10.900;2022-08-21T09:54:34;5.20;;;4.70;;
21432;SDS011;18592;49.708;10.900;2022-08-21T09:56:53;5.22;;;4.72;;
21432;SDS011;18592;49.708;10.900;2022-08-21T10:01:27;5.35;;;4.80;;
21432;SDS011;18592;49.708;10.900;2022-08-21T10:03:29;4.43;;;4.03;;
21432;SDS011;18592;49.708;10.900;2022-08-21T10:05:31;4.47;;;4.07;;
21432;SDS011;18592;49.708;10.900;2022-08-21T10:07:35;4.82;;;4.43;;
21432;SDS011;18592;49.708;10.900;2022-08-21T10:09:38;4.90;;;4.50;;
21432;SDS011;18592;49.708;10.900;2022-08-21T10:11:43;5.25;;;4.85;;
21432;SDS011;18592;49.708;10.900;2022-08-21T10:20:43;6.25;;;5.65;;
21432;SDS011;18592;49.708;10.900;2022-08-21T10:25:25;4.60;;;4.20;;
21432;SDS011;18592;49.708;10.900;2022-08-21T10:29:57;4.82;;;4.43;;
21432;SDS011;18592;49.708;10.900;2022-08-21T10:32:19;4.72;;;4.32;;
21432;SDS011;18592;49.708;10.900;2022-08-21T10:34:36;4.95;;;4.55;;
21432;SDS011;18592;49.708;10.900;2022-08-21T10:39:15;4.53;;;4.10;;
21432;SDS011;18592;49.708;10.900;2022-08-21T10:48:58;4.90;;;4.50;;
21432;SDS011;18592;49.708;10.900;2022-08-21T10:51:20;5.07;;;4.68;;
21432;SDS011;18592;49.708;10.900;2022-08-21T10:53:36;4.60;;;4.20;;
21432;SDS011;18592;49.708;10.900;2022-08-21T10:57:59;4.60;;;4.30;;
21432;SDS011;18592;49.708;10.900;2022-08-21T11:00:08;4.88;;;4.47;;
21432;SDS011;18592;49.708;10.900;2022-08-21T11:07:02;4.90;;;4.50;;
21432;SDS011;18592;49.708;10.900;2022-08-21T11:09:18;5.80;;;5.30;;
21432;SDS011;18592;49.708;10.900;2022-08-21T11:20:20;5.40;;;5.00;;
21432;SDS011;18592;49.708;10.900;2022-08-21T11:22:35;5.00;;;4.50;;
21432;SDS011;18592;49.708;10.900;2022-08-21T11:24:54;5.28;;;4.88;;
21432;SDS011;18592;49.708;10.900;2022-08-21T11:27:18;5.03;;;4.63;;
21432;SDS011;18592;49.708;10.900;2022-08-21T11:29:36;4.85;;;4.45;;
21432;SDS011;18592;49.708;10.900;2022-08-21T11:34:15;4.75;;;4.35;;
21432;SDS011;18592;49.708;10.900;2022-08-21T11:36:27;4.60;;;4.20;;
21432;SDS011;18592;49.708;10.900;2022-08-21T11:38:35;4.18;;;3.88;;
21432;SDS011;18592;49.708;10.900;2022-08-21T11:43:29;4.53;;;4.22;;
21432;SDS011;18592;49.708;10.900;2022-08-21T11:45:45;4.38;;;3.97;;
21432;SDS011;18592;49.708;10.900;2022-08-21T11:48:00;4.45;;;4.15;;
21432;SDS011;18592;49.708;10.900;2022-08-21T11:50:20;4.40;;;4.00;;
21432;SDS011;18592;49.708;10.900;2022-08-21T11:53:12;4.43;;;4.13;;
21432;SDS011;18592;49.708;10.900;2022-08-21T11:55:19;4.57;;;4.22;;
21432;SDS011;18592;49.708;10.900;2022-08-21T11:57:32;4.45;;;4.05;;
21432;SDS011;18592;49.708;10.900;2022-08-21T11:59:45;4.45;;;4.05;;
21432;SDS011;18592;49.708;10.900;2022-08-21T12:01:53;4.40;;;4.10;;
21432;SDS011;18592;49.708;10.900;2022-08-21T12:06:11;4.47;;;4.07;;
21432;SDS011;18592;49.708;10.900;2022-08-21T12:08:33;4.72;;;4.28;;
21432;SDS011;18592;49.708;10.900;2022-08-21T12:10:39;4.18;;;3.80;;
21432;SDS011;18592;49.708;10.900;2022-08-21T12:12:44;4.35;;;4.03;;
21432;SDS011;18592;49.708;10.900;2022-08-21T12:14:49;4.70;;;4.28;;
21432;SDS011;18592;49.708;10.900;2022-08-21T12:16:53;4.68;;;3.95;;
21432;SDS011;18592;49.708;10.900;2022-08-21T12:19:13;4.10;;;3.80;;
21432;SDS011;18592;49.708;10.900;2022-08-21T12:21:25;3.88;;;3.55;;
21432;SDS011;18592;49.708;10.900;2022-08-21T12:24:00;4.72;;;4.32;;
21432;SDS011;18592;49.708;10.900;2022-08-21T12:26:54;4.55;;;4.15;;
21432;SDS011;18592;49.708;10.900;2022-08-21T12:28:26;4.03;;;3.60;;
21432;SDS011;18592;49.708;10.900;2022-08-21T12:30:35;4.72;;;4.32;;
21432;SDS011;18592;49.708;10.900;2022-08-21T12:34:50;4.40;;;4.00;;
21432;SDS011;18592;49.708;10.900;2022-08-21T12:37:18;4.03;;;3.67;;
21432;SDS011;18592;49.708;10.900;2022-08-21T12:39:30;3.88;;;3.55;;
21432;SDS011;18592;49.708;10.900;2022-08-21T12:41:42;4.90;;;4.00;;
21432;SDS011;18592;49.708;10.900;2022-08-21T12:46:15;3.88;;;3.58;;
21432;SDS011;18592;49.708;10.900;2022-08-21T12:48:21;3.72;;;3.42;;
21432;SDS011;18592;49.708;10.900;2022-08-21T12:50:38;3.58;;;3.30;;
21432;SDS011;18592;49.708;10.900;2022-08-21T12:52:59;3.42;;;3.15;;
21432;SDS011;18592;49.708;10.900;2022-08-21T12:55:25;3.60;;;3.40;;
21432;SDS011;18592;49.708;10.900;2022-08-21T12:57:29;3.40;;;3.10;;
21432;SDS011;18592;49.708;10.900;2022-08-21T12:59:32;3.33;;;3.03;;
21432;SDS011;18592;49.708;10.900;2022-08-21T13:01:38;3.38;;;3.08;;
21432;SDS011;18592;49.708;10.900;2022-08-21T13:03:47;3.85;;;3.55;;
21432;SDS011;18592;49.708;10.900;2022-08-21T13:06:05;3.20;;;3.00;;
21432;SDS011;18592;49.708;10.900;2022-08-21T13:08:09;2.97;;;2.78;;
21432;SDS011;18592;49.708;10.900;2022-08-21T13:10:19;3.53;;;3.22;;
21432;SDS011;18592;49.708;10.900;2022-08-21T13:12:23;3.40;;;3.20;;
21432;SDS011;18592;49.708;10.900;2022-08-21T13:14:42;3.72;;;3.42;;
21432;SDS011;18592;49.708;10.900;2022-08-21T13:16:52;3.33;;;3.13;;
21432;SDS011;18592;49.708;10.900;2022-08-21T13:18:57;3.50;;;3.30;;
21432;SDS011;18592;49.708;10.900;2022-08-21T13:21:12;3.60;;;3.03;;
21432;SDS011;18592;49.708;10.900;2022-08-21T13:23:26;3.22;;;3.03;;